createdAt,value
2023-04-26T00:00:00.524Z,101249.13
2023-04-26T00:02:27.910Z,101247.28
2023-04-26T00:04:59.069Z,101243.53
2023-04-26T00:07:25.673Z,101251.53
2023-04-26T00:09:55.158Z,101243.81
2023-04-26T00:12:22.064Z,101245.84
2023-04-26T00:14:50.884Z,101247.66
2023-04-26T00:17:17.487Z,101252.66
2023-04-26T00:19:43.884Z,101247.38
2023-04-26T00:22:10.956Z,101250.97
2023-04-26T00:24:37.761Z,101252.16
2023-04-26T00:27:09.149Z,101252.97
2023-04-26T00:29:35.687Z,101245.44
2023-04-26T00:32:02.229Z,101245.06
2023-04-26T00:34:28.645Z,101239.91
2023-04-26T00:36:55.193Z,101243.19
2023-04-26T00:39:22.428Z,101241.28
2023-04-26T00:41:48.782Z,101237.59
2023-04-26T00:44:17.239Z,101244.50
2023-04-26T00:46:43.604Z,101237.63
2023-04-26T00:49:12.542Z,101236.16
2023-04-26T00:51:38.936Z,101237.81
2023-04-26T00:54:05.458Z,101236.38
2023-04-26T00:56:32.054Z,101236.91
2023-04-26T00:58:59.006Z,101236.56
2023-04-26T01:01:25.440Z,101236.22
2023-04-26T01:03:51.978Z,101236.78
2023-04-26T01:06:18.452Z,101231.97
2023-04-26T01:08:44.829Z,101237.94
2023-04-26T01:11:11.213Z,101237.38
2023-04-26T01:13:37.633Z,101235.69
2023-04-26T01:16:05.053Z,101239.84
2023-04-26T01:18:31.441Z,101239.16
2023-04-26T01:20:57.899Z,101241.31
2023-04-26T01:23:27.945Z,101240.28
2023-04-26T01:25:56.231Z,101243.19
2023-04-26T01:28:23.111Z,101242.75
2023-04-26T01:30:49.491Z,101245.88
2023-04-26T01:33:16.035Z,101248.53
2023-04-26T01:35:44.029Z,101248.31
2023-04-26T01:38:10.990Z,101241.03
2023-04-26T01:40:37.474Z,101247.47
2023-04-26T01:43:05.694Z,101236.16
2023-04-26T01:45:32.086Z,101245.66
2023-04-26T01:48:16.761Z,101242.56
2023-04-26T01:50:43.171Z,101235.13
2023-04-26T01:53:09.552Z,101237.50
2023-04-26T01:55:35.910Z,101234.81
2023-04-26T01:58:02.278Z,101244.69
2023-04-26T02:00:28.805Z,101244.06
2023-04-26T02:02:55.522Z,101245.78
2023-04-26T02:05:22.818Z,101255.53
2023-04-26T02:07:49.225Z,101250.44
2023-04-26T02:10:15.585Z,101255.63
2023-04-26T02:12:42.138Z,101257.19
2023-04-26T02:15:08.520Z,101252.84
2023-04-26T02:17:34.916Z,101249.50
2023-04-26T02:20:01.378Z,101255.47
2023-04-26T02:22:27.854Z,101254.19
2023-04-26T02:24:54.238Z,101255.09
2023-04-26T02:27:27.718Z,101262.94
2023-04-26T02:29:54.346Z,101258.19
2023-04-26T02:32:20.749Z,101251.75
2023-04-26T02:34:47.145Z,101248.53
2023-04-26T02:37:13.862Z,101250.28
2023-04-26T02:39:40.269Z,101235.84
2023-04-26T02:42:06.617Z,101234.22
2023-04-26T02:44:33.051Z,101240.66
2023-04-26T02:46:59.495Z,101244.56
2023-04-26T02:49:26.040Z,101244.03
2023-04-26T02:51:52.964Z,101245.25
2023-04-26T02:54:19.755Z,101240.81
2023-04-26T02:56:46.549Z,101239.69
2023-04-26T02:59:12.915Z,101247.25
2023-04-26T03:01:39.492Z,101241.81
2023-04-26T03:04:06.132Z,101239.38
2023-04-26T03:06:34.157Z,101238.84
2023-04-26T03:09:00.998Z,101235.84
2023-04-26T03:11:27.609Z,101245.53
2023-04-26T03:13:54.007Z,101239.13
2023-04-26T03:16:23.835Z,101233.66
2023-04-26T03:18:50.576Z,101233.47
2023-04-26T03:21:17.212Z,101232.19
2023-04-26T03:23:45.125Z,101234.03
2023-04-26T03:26:11.487Z,101232.41
2023-04-26T03:28:37.877Z,101223.41
2023-04-26T03:31:04.302Z,101224.94
2023-04-26T03:33:31.585Z,101222.00
2023-04-26T03:35:58.001Z,101217.09
2023-04-26T03:38:24.951Z,101215.31
2023-04-26T03:40:51.681Z,101222.50
2023-04-26T03:43:18.071Z,101219.75
2023-04-26T03:45:44.513Z,101211.66
2023-04-26T03:48:11.543Z,101218.09
2023-04-26T03:50:39.500Z,101219.19
2023-04-26T03:53:05.929Z,101215.44
2023-04-26T03:55:32.526Z,101216.94
2023-04-26T03:57:59.335Z,101217.25
2023-04-26T04:00:26.715Z,101222.03
2023-04-26T04:02:53.362Z,101222.47
2023-04-26T04:05:24.292Z,101218.53
2023-04-26T04:07:50.828Z,101228.09
2023-04-26T04:10:17.278Z,101216.50
2023-04-26T04:12:44.769Z,101215.59
2023-04-26T04:15:11.204Z,101214.84
2023-04-26T04:17:43.162Z,101221.75
2023-04-26T04:20:10.895Z,101228.16
2023-04-26T04:22:39.641Z,101226.66
2023-04-26T04:25:06.101Z,101226.63
2023-04-26T04:27:32.574Z,101234.16
2023-04-26T04:29:59.065Z,101235.41
2023-04-26T04:32:26.402Z,101233.53
2023-04-26T04:34:53.881Z,101238.53
2023-04-26T04:37:21.256Z,101236.19
2023-04-26T04:39:47.653Z,101246.03
2023-04-26T04:42:15.252Z,101235.34
2023-04-26T04:44:42.052Z,101237.13
2023-04-26T04:47:08.566Z,101234.00
2023-04-26T04:49:37.317Z,101240.88
2023-04-26T04:52:03.669Z,101237.53
2023-04-26T04:54:30.128Z,101242.59
2023-04-26T04:56:57.786Z,101247.44
2023-04-26T04:59:24.262Z,101246.03
2023-04-26T05:01:50.934Z,101249.63
2023-04-26T05:04:18.654Z,101252.66
2023-04-26T05:06:45.186Z,101254.47
2023-04-26T05:09:11.608Z,101251.66
2023-04-26T05:11:38.247Z,101266.00
2023-04-26T05:14:06.649Z,101255.50
2023-04-26T05:16:33.173Z,101257.91
2023-04-26T05:19:01.986Z,101263.94
2023-04-26T05:21:28.824Z,101268.63
2023-04-26T05:23:55.585Z,101266.44
2023-04-26T05:26:22.123Z,101277.34
2023-04-26T05:28:51.125Z,101276.75
2023-04-26T05:31:29.094Z,101285.91
2023-04-26T05:34:15.840Z,101277.56
2023-04-26T05:36:45.604Z,101276.25
2023-04-26T05:39:12.485Z,101286.78
2023-04-26T05:41:38.871Z,101284.00
2023-04-26T05:44:05.487Z,101290.69
2023-04-26T05:46:31.869Z,101279.25
2023-04-26T05:48:58.308Z,101282.06
2023-04-26T05:51:24.716Z,101284.88
2023-04-26T05:53:51.656Z,101279.34
2023-04-26T05:56:18.584Z,101286.28
2023-04-26T05:58:45.047Z,101288.00
2023-04-26T06:01:12.418Z,101291.47
2023-04-26T06:03:39.180Z,101290.44
2023-04-26T06:06:05.859Z,101283.78
2023-04-26T06:08:32.286Z,101290.28
2023-04-26T06:10:58.685Z,101292.91
2023-04-26T06:13:26.811Z,101301.34
2023-04-26T06:15:53.580Z,101294.00
2023-04-26T06:18:21.031Z,101296.13
2023-04-26T06:20:47.524Z,101296.16
2023-04-26T06:23:14.798Z,101301.13
2023-04-26T06:25:44.768Z,101299.97
2023-04-26T06:28:11.833Z,101301.28
2023-04-26T06:30:38.350Z,101297.97
2023-04-26T06:33:05.076Z,101307.59
2023-04-26T06:35:32.876Z,101307.09
2023-04-26T06:37:59.524Z,101302.94
2023-04-26T06:40:26.625Z,101308.03
2023-04-26T06:42:54.370Z,101313.69
2023-04-26T06:45:36.984Z,101307.84
2023-04-26T06:48:04.865Z,101305.94
2023-04-26T06:50:32.381Z,101304.19
2023-04-26T06:52:58.823Z,101305.25
2023-04-26T06:55:25.283Z,101301.75
2023-04-26T06:57:51.733Z,101304.44
2023-04-26T07:00:18.328Z,101301.31
2023-04-26T07:02:44.891Z,101304.66
2023-04-26T07:05:11.476Z,101309.22
2023-04-26T07:07:37.997Z,101306.41
2023-04-26T07:10:04.375Z,101309.56
2023-04-26T07:12:31.278Z,101313.97
2023-04-26T07:14:58.063Z,101305.81
2023-04-26T07:17:24.503Z,101307.44
2023-04-26T07:19:50.863Z,101296.31
2023-04-26T07:22:17.246Z,101302.66
2023-04-26T07:24:43.604Z,101300.56
2023-04-26T07:27:10.375Z,101304.78
2023-04-26T07:29:36.800Z,101297.88
2023-04-26T07:32:03.954Z,101300.72
2023-04-26T07:34:30.341Z,101300.63
2023-04-26T07:36:56.709Z,101306.09
2023-04-26T07:39:23.527Z,101305.78
2023-04-26T07:41:50.060Z,101300.03
2023-04-26T07:44:16.436Z,101311.19
2023-04-26T07:46:43.057Z,101311.91
2023-04-26T07:49:09.687Z,101300.66
2023-04-26T07:51:36.420Z,101299.31
2023-04-26T07:54:02.816Z,101299.53
2023-04-26T07:56:29.257Z,101302.72
2023-04-26T07:58:56.343Z,101299.50
2023-04-26T08:01:22.749Z,101304.72
2023-04-26T08:03:49.495Z,101297.19
2023-04-26T08:06:16.723Z,101297.78
2023-04-26T08:08:44.862Z,101289.59
2023-04-26T08:11:11.652Z,101294.00
2023-04-26T08:13:38.095Z,101296.84
2023-04-26T08:16:04.453Z,101289.59
2023-04-26T08:18:30.818Z,101288.72
2023-04-26T08:20:57.398Z,101299.75
2023-04-26T08:23:23.798Z,101300.97
2023-04-26T08:25:50.150Z,101296.34
2023-04-26T08:28:16.515Z,101298.53
2023-04-26T08:30:43.152Z,101299.03
2023-04-26T08:33:09.586Z,101301.06
2023-04-26T08:35:36.014Z,101296.97
2023-04-26T08:38:02.413Z,101308.56
2023-04-26T08:40:28.868Z,101306.34
2023-04-26T08:42:55.296Z,101306.75
2023-04-26T08:45:21.737Z,101307.72
2023-04-26T08:47:48.202Z,101301.25
2023-04-26T08:50:14.970Z,101305.38
2023-04-26T08:52:41.391Z,101311.41
2023-04-26T08:55:07.732Z,101301.81
2023-04-26T08:57:34.181Z,101305.66
2023-04-26T09:00:01.461Z,101297.22
2023-04-26T09:02:27.961Z,101294.00
2023-04-26T09:04:55.389Z,101298.94
2023-04-26T09:07:22.122Z,101310.13
2023-04-26T09:09:48.485Z,101311.59
2023-04-26T09:12:14.871Z,101307.34
2023-04-26T09:14:42.354Z,101318.88
2023-04-26T09:17:08.747Z,101301.38
2023-04-26T09:19:35.759Z,101297.44
2023-04-26T09:22:02.324Z,101308.28
2023-04-26T09:24:28.742Z,101309.34
2023-04-26T09:26:55.109Z,101307.16
2023-04-26T09:29:21.564Z,101309.63
2023-04-26T09:31:49.733Z,101307.66
2023-04-26T09:34:16.545Z,101311.22
2023-04-26T09:36:42.953Z,101296.75
2023-04-26T09:39:10.293Z,101287.94
2023-04-26T09:41:36.644Z,101302.22
2023-04-26T09:44:03.131Z,101292.03
2023-04-26T09:46:29.584Z,101291.00
2023-04-26T09:48:56.059Z,101292.63
2023-04-26T09:51:22.454Z,101289.59
2023-04-26T09:53:49.920Z,101293.53
2023-04-26T09:56:18.901Z,101278.75
2023-04-26T09:58:45.378Z,101281.50
2023-04-26T10:01:12.139Z,101284.75
2023-04-26T10:03:38.772Z,101287.19
2023-04-26T10:06:05.726Z,101279.91
2023-04-26T10:08:32.951Z,101290.25
2023-04-26T10:10:59.302Z,101283.91
2023-04-26T10:13:25.957Z,101288.38
2023-04-26T10:15:52.454Z,101283.03
2023-04-26T10:18:18.956Z,101287.06
2023-04-26T10:20:45.446Z,101280.44
2023-04-26T10:23:12.120Z,101269.25
2023-04-26T10:25:38.558Z,101269.53
2023-04-26T10:28:04.969Z,101273.19
2023-04-26T10:30:32.224Z,101270.19
2023-04-26T10:32:58.660Z,101264.78
2023-04-26T10:35:26.093Z,101264.13
2023-04-26T10:37:52.470Z,101268.50
2023-04-26T10:40:18.827Z,101269.53
2023-04-26T10:42:45.294Z,101273.69
2023-04-26T10:45:11.822Z,101272.50
2023-04-26T10:47:38.753Z,101267.75
2023-04-26T10:50:06.147Z,101271.94
2023-04-26T10:52:32.833Z,101264.25
2023-04-26T10:54:59.268Z,101268.59
2023-04-26T10:57:25.659Z,101261.41
2023-04-26T10:59:54.868Z,101259.03
2023-04-26T11:02:21.442Z,101254.66
2023-04-26T11:04:47.798Z,101263.41
2023-04-26T11:07:14.203Z,101259.03
2023-04-26T11:09:40.787Z,101265.94
2023-04-26T11:12:07.692Z,101264.09
2023-04-26T11:14:35.032Z,101253.72
2023-04-26T11:17:01.397Z,101259.28
2023-04-26T11:19:27.737Z,101254.03
2023-04-26T11:21:55.224Z,101259.59
2023-04-26T11:24:22.567Z,101264.66
2023-04-26T11:26:48.935Z,101260.63
2023-04-26T11:29:15.666Z,101253.53
2023-04-26T11:31:42.097Z,101247.94
2023-04-26T11:34:08.679Z,101241.25
2023-04-26T11:36:35.014Z,101239.44
2023-04-26T11:39:02.573Z,101244.47
2023-04-26T11:41:29.004Z,101239.03
2023-04-26T11:43:55.474Z,101238.03
2023-04-26T11:46:22.430Z,101235.66
2023-04-26T11:48:48.850Z,101237.59
2023-04-26T11:51:15.241Z,101233.00
2023-04-26T11:53:41.970Z,101227.78
2023-04-26T11:56:08.508Z,101231.53
2023-04-26T11:58:34.896Z,101229.63
2023-04-26T12:01:04.432Z,101221.50
2023-04-26T12:03:35.446Z,101233.84
2023-04-26T12:06:02.429Z,101236.38
2023-04-26T12:08:28.975Z,101233.06
2023-04-26T12:10:55.534Z,101229.41
2023-04-26T12:13:21.945Z,101227.38
2023-04-26T12:15:50.454Z,101226.81
2023-04-26T12:18:17.462Z,101234.19
2023-04-26T12:20:46.606Z,101244.75
2023-04-26T12:23:13.194Z,101235.78
2023-04-26T12:25:39.641Z,101246.38
2023-04-26T12:28:06.417Z,101235.34
2023-04-26T12:30:32.836Z,101230.47
2023-04-26T12:33:15.538Z,101234.25
2023-04-26T12:35:43.903Z,101226.41
2023-04-26T12:38:10.723Z,101224.72
2023-04-26T12:40:37.387Z,101224.97
2023-04-26T12:43:04.013Z,101229.03
2023-04-26T12:45:30.526Z,101227.81
2023-04-26T12:47:57.094Z,101225.50
2023-04-26T12:50:23.629Z,101217.03
2023-04-26T12:52:50.369Z,101230.13
2023-04-26T12:55:16.725Z,101224.31
2023-04-26T12:57:43.183Z,101233.34
2023-04-26T13:00:09.664Z,101235.63
2023-04-26T13:02:36.330Z,101232.44
2023-04-26T13:05:04.840Z,101237.34
2023-04-26T13:07:31.767Z,101232.25
2023-04-26T13:09:58.326Z,101242.66
2023-04-26T13:12:24.740Z,101238.75
2023-04-26T13:14:51.115Z,101243.25
2023-04-26T13:17:17.676Z,101234.97
2023-04-26T13:19:44.033Z,101240.06
2023-04-26T13:22:10.634Z,101224.34
2023-04-26T13:24:37.055Z,101219.66
2023-04-26T13:27:03.652Z,101227.63
2023-04-26T13:29:30.085Z,101224.63
2023-04-26T13:31:56.541Z,101220.25
2023-04-26T13:34:23.623Z,101225.84
2023-04-26T13:36:50.446Z,101227.00
2023-04-26T13:39:16.808Z,101228.22
2023-04-26T13:41:43.224Z,101226.16
2023-04-26T13:44:09.659Z,101221.75
2023-04-26T13:46:36.350Z,101211.50
2023-04-26T13:49:02.907Z,101216.06
2023-04-26T13:51:30.698Z,101216.59
2023-04-26T13:53:57.139Z,101219.03
2023-04-26T13:56:25.641Z,101213.13
2023-04-26T13:58:52.621Z,101221.13
2023-04-26T14:01:19.056Z,101210.00
2023-04-26T14:03:45.633Z,101217.66
2023-04-26T14:06:12.223Z,101217.13
2023-04-26T14:08:38.621Z,101227.34
2023-04-26T14:11:05.052Z,101229.03
2023-04-26T14:13:31.555Z,101240.94
2023-04-26T14:15:58.020Z,101224.22
2023-04-26T14:18:24.475Z,101230.81
2023-04-26T14:20:50.947Z,101237.78
2023-04-26T14:23:17.330Z,101235.47
2023-04-26T14:25:43.721Z,101231.72
2023-04-26T14:28:11.891Z,101222.00
2023-04-26T14:30:38.256Z,101224.47
2023-04-26T14:33:04.706Z,101217.94
2023-04-26T14:35:31.131Z,101213.59
2023-04-26T14:37:57.513Z,101217.31
2023-04-26T14:40:23.892Z,101219.97
2023-04-26T14:42:50.252Z,101208.22
2023-04-26T14:45:16.809Z,101210.00
2023-04-26T14:47:43.190Z,101214.56
2023-04-26T14:50:10.413Z,101200.78
2023-04-26T14:52:36.788Z,101203.31
2023-04-26T14:55:03.145Z,101194.13
2023-04-26T14:57:29.876Z,101202.53
2023-04-26T14:59:56.392Z,101204.44
2023-04-26T15:02:22.831Z,101200.00
2023-04-26T15:04:49.469Z,101195.16
2023-04-26T15:07:30.812Z,101192.75
2023-04-26T15:09:58.931Z,101197.38
2023-04-26T15:12:25.361Z,101195.47
2023-04-26T15:14:51.708Z,101196.22
2023-04-26T15:17:18.105Z,101194.59
2023-04-26T15:19:44.660Z,101192.88
2023-04-26T15:22:11.893Z,101196.38
2023-04-26T15:24:38.553Z,101189.06
2023-04-26T15:27:05.072Z,101197.78
2023-04-26T15:29:31.763Z,101195.91
2023-04-26T15:31:58.547Z,101195.84
2023-04-26T15:34:26.742Z,101197.44
2023-04-26T15:36:53.491Z,101195.75
2023-04-26T15:39:19.880Z,101197.25
2023-04-26T15:41:46.307Z,101192.94
2023-04-26T15:44:12.730Z,101198.81
2023-04-26T15:46:39.395Z,101196.63
2023-04-26T15:49:05.981Z,101198.63
2023-04-26T15:51:32.594Z,101191.56
2023-04-26T15:53:58.991Z,101188.88
2023-04-26T15:56:26.622Z,101184.91
2023-04-26T15:58:53.112Z,101191.56
2023-04-26T16:01:19.748Z,101190.41
2023-04-26T16:03:47.730Z,101200.97
2023-04-26T16:06:14.500Z,101196.47
2023-04-26T16:08:41.257Z,101203.34
2023-04-26T16:11:07.689Z,101205.78
2023-04-26T16:13:34.248Z,101198.44
2023-04-26T16:16:00.760Z,101204.16
2023-04-26T16:18:27.302Z,101198.66
2023-04-26T16:20:53.770Z,101198.31
2023-04-26T16:23:21.659Z,101194.03
2023-04-26T16:25:48.007Z,101192.28
2023-04-26T16:28:14.396Z,101208.47
2023-04-26T16:30:41.520Z,101197.75
2023-04-26T16:33:10.076Z,101196.91
2023-04-26T16:35:36.784Z,101184.25
2023-04-26T16:38:03.145Z,101194.19
2023-04-26T16:40:29.864Z,101187.75
2023-04-26T16:42:56.214Z,101185.91
2023-04-26T16:45:22.565Z,101182.31
2023-04-26T16:47:48.925Z,101178.84
2023-04-26T16:50:15.318Z,101189.16
2023-04-26T16:52:41.770Z,101184.00
2023-04-26T16:55:08.623Z,101178.56
2023-04-26T16:57:35.037Z,101181.53
2023-04-26T17:00:01.849Z,101190.66
2023-04-26T17:02:28.534Z,101198.13
2023-04-26T17:04:55.334Z,101198.38
2023-04-26T17:07:22.181Z,101198.56
2023-04-26T17:09:48.707Z,101195.41
2023-04-26T17:12:15.071Z,101195.63
2023-04-26T17:14:42.016Z,101193.06
2023-04-26T17:17:08.428Z,101200.53
2023-04-26T17:19:34.802Z,101199.91
2023-04-26T17:22:01.383Z,101194.06
2023-04-26T17:24:27.769Z,101194.75
2023-04-26T17:26:54.144Z,101199.81
2023-04-26T17:29:20.501Z,101197.91
2023-04-26T17:31:47.176Z,101198.53
2023-04-26T17:34:17.965Z,101195.34
2023-04-26T17:36:46.069Z,101190.91
2023-04-26T17:39:12.433Z,101198.00
2023-04-26T17:41:39.108Z,101201.31
2023-04-26T17:44:05.907Z,101196.56
2023-04-26T17:46:32.370Z,101193.75
2023-04-26T17:48:59.915Z,101202.75
2023-04-26T17:51:26.366Z,101203.06
2023-04-26T17:53:52.801Z,101202.84
2023-04-26T17:56:19.317Z,101203.69
2023-04-26T17:58:45.874Z,101213.13
2023-04-26T18:01:12.322Z,101208.38
2023-04-26T18:03:39.096Z,101212.66
2023-04-26T18:06:05.740Z,101214.41
2023-04-26T18:08:32.112Z,101220.63
2023-04-26T18:10:58.528Z,101220.72
2023-04-26T18:13:24.905Z,101208.69
2023-04-26T18:15:51.465Z,101225.13
2023-04-26T18:18:17.972Z,101217.09
2023-04-26T18:20:44.435Z,101223.03
2023-04-26T18:23:11.073Z,101222.75
2023-04-26T18:25:37.415Z,101225.69
2023-04-26T18:28:03.822Z,101227.41
2023-04-26T18:30:30.406Z,101230.63
2023-04-26T18:32:56.963Z,101226.38
2023-04-26T18:35:23.365Z,101224.41
2023-04-26T18:37:49.753Z,101225.69
2023-04-26T18:40:16.261Z,101227.94
2023-04-26T18:42:45.030Z,101231.97
2023-04-26T18:45:11.571Z,101230.63
2023-04-26T18:47:38.473Z,101233.09
2023-04-26T18:50:04.951Z,101232.06
2023-04-26T18:52:31.481Z,101234.50
2023-04-26T18:54:58.004Z,101230.78
2023-04-26T18:57:24.489Z,101227.19
2023-04-26T18:59:51.101Z,101237.09
2023-04-26T19:02:17.760Z,101237.22
2023-04-26T19:04:44.621Z,101242.56
2023-04-26T19:07:11.743Z,101240.84
2023-04-26T19:09:50.466Z,101235.44
2023-04-26T19:12:19.954Z,101243.97
2023-04-26T19:14:46.440Z,101236.41
2023-04-26T19:17:13.115Z,101246.75
2023-04-26T19:19:39.505Z,101254.56
2023-04-26T19:22:05.999Z,101255.78
2023-04-26T19:24:32.621Z,101256.56
2023-04-26T19:26:59.101Z,101252.78
2023-04-26T19:29:25.546Z,101264.19
2023-04-26T19:31:52.139Z,101266.28
2023-04-26T19:34:19.363Z,101266.06
2023-04-26T19:36:46.174Z,101266.81
2023-04-26T19:39:12.640Z,101270.00
2023-04-26T19:41:39.221Z,101265.28
2023-04-26T19:44:05.909Z,101271.41
2023-04-26T19:46:32.779Z,101273.69
2023-04-26T19:48:59.339Z,101273.81
2023-04-26T19:51:25.805Z,101274.84
2023-04-26T19:53:52.136Z,101270.94
2023-04-26T19:56:18.499Z,101271.41
2023-04-26T19:58:44.906Z,101274.59
2023-04-26T20:01:11.747Z,101277.47
2023-04-26T20:03:39.285Z,101284.72
2023-04-26T20:06:06.131Z,101284.69
2023-04-26T20:08:32.660Z,101293.03
2023-04-26T20:10:59.628Z,101283.81
2023-04-26T20:13:26.303Z,101293.44
2023-04-26T20:15:52.937Z,101297.09
2023-04-26T20:18:19.405Z,101291.03
2023-04-26T20:20:47.668Z,101298.69
2023-04-26T20:23:14.104Z,101297.50
2023-04-26T20:25:41.705Z,101293.59
2023-04-26T20:28:08.424Z,101292.03
2023-04-26T20:30:34.870Z,101297.53
2023-04-26T20:33:01.381Z,101293.75
2023-04-26T20:35:27.847Z,101296.53
2023-04-26T20:37:54.188Z,101296.03
2023-04-26T20:40:20.543Z,101292.69
2023-04-26T20:42:47.516Z,101297.00
2023-04-26T20:45:14.051Z,101296.41
2023-04-26T20:47:40.603Z,101293.91
2023-04-26T20:50:07.417Z,101294.50
2023-04-26T20:52:33.853Z,101297.81
2023-04-26T20:55:00.471Z,101294.09
2023-04-26T20:57:26.929Z,101293.97
2023-04-26T20:59:53.315Z,101289.47
2023-04-26T21:02:19.752Z,101292.22
2023-04-26T21:04:46.321Z,101289.34
2023-04-26T21:07:12.854Z,101288.38
2023-04-26T21:09:39.198Z,101287.56
2023-04-26T21:12:05.833Z,101290.75
2023-04-26T21:14:32.232Z,101293.72
2023-04-26T21:16:58.709Z,101298.59
2023-04-26T21:19:25.598Z,101294.84
2023-04-26T21:21:52.022Z,101304.13
2023-04-26T21:24:18.434Z,101296.22
2023-04-26T21:26:45.171Z,101304.13
2023-04-26T21:29:12.681Z,101302.06
2023-04-26T21:31:39.102Z,101305.91
2023-04-26T21:34:05.504Z,101296.84
2023-04-26T21:36:32.444Z,101301.84
2023-04-26T21:38:59.107Z,101308.28
2023-04-26T21:41:26.022Z,101305.03
2023-04-26T21:43:53.105Z,101309.53
2023-04-26T21:46:19.484Z,101306.28
2023-04-26T21:48:46.137Z,101307.31
2023-04-26T21:51:12.909Z,101307.94
2023-04-26T21:53:39.257Z,101302.13
2023-04-26T21:56:06.529Z,101300.88
2023-04-26T21:58:33.320Z,101308.81
2023-04-26T22:00:59.754Z,101302.81
2023-04-26T22:03:26.316Z,101309.53
2023-04-26T22:05:52.859Z,101311.56
2023-04-26T22:08:19.245Z,101314.63
2023-04-26T22:10:46.118Z,101308.06
2023-04-26T22:13:12.854Z,101309.34
2023-04-26T22:15:39.229Z,101310.00
2023-04-26T22:18:05.644Z,101306.16
2023-04-26T22:20:32.132Z,101316.19
2023-04-26T22:22:58.490Z,101312.41
2023-04-26T22:25:25.255Z,101315.38
2023-04-26T22:27:51.803Z,101311.13
2023-04-26T22:30:25.600Z,101313.91
2023-04-26T22:32:54.481Z,101317.53
2023-04-26T22:35:21.640Z,101310.88
2023-04-26T22:37:48.367Z,101324.44
2023-04-26T22:40:14.833Z,101319.66
2023-04-26T22:42:41.652Z,101316.25
2023-04-26T22:45:08.239Z,101318.53
2023-04-26T22:47:34.676Z,101325.97
2023-04-26T22:50:01.172Z,101322.22
2023-04-26T22:52:31.541Z,101318.88
2023-04-26T22:54:59.708Z,101327.88
2023-04-26T22:57:26.289Z,101316.66
2023-04-26T22:59:52.671Z,101325.31
2023-04-26T23:02:19.703Z,101331.66
2023-04-26T23:04:46.212Z,101330.88
2023-04-26T23:07:12.592Z,101324.25
2023-04-26T23:09:39.007Z,101328.69
2023-04-26T23:12:05.611Z,101331.13
2023-04-26T23:14:32.094Z,101338.94
2023-04-26T23:17:02.721Z,101334.28
2023-04-26T23:19:29.359Z,101338.91
2023-04-26T23:21:55.772Z,101340.63
2023-04-26T23:24:22.149Z,101333.50
2023-04-26T23:26:48.542Z,101337.63
2023-04-26T23:29:15.205Z,101337.72
2023-04-26T23:31:41.873Z,101338.00
2023-04-26T23:34:08.351Z,101342.22
2023-04-26T23:36:34.727Z,101344.88
2023-04-26T23:39:01.097Z,101344.34
2023-04-26T23:41:32.181Z,101338.34
2023-04-26T23:43:58.817Z,101339.28
2023-04-26T23:46:25.325Z,101345.31
2023-04-26T23:48:51.896Z,101346.50
2023-04-26T23:51:18.345Z,101351.72
2023-04-26T23:53:45.009Z,101349.44
2023-04-26T23:56:11.457Z,101352.28
2023-04-26T23:58:37.900Z,101348.81
